Tehachapi, CA

8:48 AM PST on December 13, 2019 (GMT -0800)
Tehachapi Municipal

Weather History for KTSP - October, 2019

Change the Weather History Date:

Wednesday, October 9, 2019

  Actual Average Record
Temperature  
Mean Temperature 60 °F -  
Max Temperature 69 °F 72 °F 87 °F (2015)
Min Temperature 50 °F 44 °F 35 °F (2018)
Degree Days  
Heating Degree Days 6    
Growing Degree Days 10 (Base 50)    
Moisture  
Dew Point 32 °F    
Average Humidity 36    
Maximum Humidity 58    
Minimum Humidity 26    
Precipitation  
Precipitation 0.00 in - - ()
Sea Level Pressure  
Sea Level Pressure 29.93 in    
Wind  
Wind Speed 12 mph ()    
Max Wind Speed 23 mph    
Max Gust Speed 32 mph    
Visibility 7.8 miles    
Events      
Averages and records for this station are not official NWS values.
T = Trace of Precipitation, MM = Missing Value Source: Averaged Metar Reports

Daily Weather History Graph

Daily Weather History Graph

Search for Another Location

Airport or City:

Astronomy

Oct. 09, 2019 Rise Set
Actual Time 6:54 AM PDT 6:26 PM PDT
Civil Twilight 6:29 AM PDT 6:52 PM PDT
Nautical Twilight 5:59 AM PDT 7:21 PM PDT
Astronomical Twilight 5:30 AM PDT 7:50 PM PDT
Moon 4:49 PM PDT (10/9) 2:58 AM PDT (10/9)
Length of Visible Light 12h 22m
Length of Day
11h 31m
Waxing Gibbous, 85% of the Moon is Illuminated
Oct 9
Waxing Gibbous
Oct 13
Full
Oct 21
Last Quarter
Oct 27
New
Nov 4
First Quarter

Hourly Weather History & Observations

Time (PDT) Temp. Dew Point Humidity Pressure Visibility Wind Dir Wind Speed Gust Speed Precip Events Conditions
12:15 AM 55.4 °F 28.4 °F 36% 29.97 in 10.0 mi West 10.4 mph - N/A   Clear
12:35 AM 55.4 °F 30.2 °F 38% 29.97 in 10.0 mi West 11.5 mph - N/A   Clear
12:55 AM 55.4 °F 32.0 °F 41% 29.96 in 10.0 mi West 10.4 mph - N/A   Clear
1:35 AM 57.2 °F 28.4 °F 33% 29.96 in 10.0 mi West 11.5 mph - N/A   Clear
1:55 AM 59.0 °F 28.4 °F 31% 29.96 in 10.0 mi West 12.7 mph - N/A   Clear
2:15 AM 59.0 °F 26.6 °F 29% 29.96 in 10.0 mi West 10.4 mph - N/A   Clear
2:35 AM 57.2 °F 26.6 °F 31% 29.96 in 10.0 mi WNW 9.2 mph - N/A   Clear
2:55 AM 57.2 °F 26.6 °F 31% 29.95 in 10.0 mi West 11.5 mph - N/A   Clear
3:15 AM 57.2 °F 26.6 °F 31% 29.95 in 10.0 mi West 10.4 mph - N/A   Clear
3:35 AM 57.2 °F 26.6 °F 31% 29.94 in 10.0 mi West 10.4 mph - N/A   Clear
3:55 AM 55.4 °F 26.6 °F 33% 29.94 in 10.0 mi West 10.4 mph - N/A   Clear
4:15 AM 55.4 °F 28.4 °F 36% 29.94 in 10.0 mi West 10.4 mph - N/A   Clear
4:35 AM 57.2 °F 28.4 °F 33% 29.94 in 10.0 mi West 9.2 mph - N/A   Clear
4:55 AM 55.4 °F 28.4 °F 36% 29.94 in 9.0 mi West 9.2 mph - N/A   Clear
5:15 AM 53.6 °F 28.4 °F 38% 29.94 in 10.0 mi West 10.4 mph - N/A   Clear
5:35 AM 53.6 °F 28.4 °F 38% 29.94 in 10.0 mi West 10.4 mph - N/A   Clear
5:55 AM 51.8 °F 28.4 °F 41% 29.94 in 9.0 mi West 6.9 mph - N/A   Clear
6:15 AM 53.6 °F 28.4 °F 38% 29.94 in 9.0 mi West 8.1 mph - N/A   Clear
6:35 AM 51.8 °F 28.4 °F 41% 29.94 in 10.0 mi West 9.2 mph - N/A   Clear
6:55 AM 55.4 °F 30.2 °F 38% 29.94 in 7.0 mi West 9.2 mph - N/A   Clear
7:15 AM 53.6 °F 30.2 °F 41% 29.94 in 7.0 mi West 9.2 mph - N/A   Clear
7:35 AM 55.4 °F 32.0 °F 41% 29.94 in 7.0 mi West 6.9 mph - N/A   Clear
7:55 AM 57.2 °F 32.0 °F 38% 29.94 in 7.0 mi West 4.6 mph - N/A   Clear
8:15 AM 59.0 °F 32.0 °F 36% 29.95 in 7.0 mi West 5.8 mph - N/A   Clear
8:35 AM 62.6 °F 32.0 °F 32% 29.95 in 8.0 mi West 9.2 mph - N/A   Clear
8:55 AM 64.4 °F 32.0 °F 30% 29.96 in 7.0 mi West 9.2 mph - N/A   Clear
9:15 AM 64.4 °F 32.0 °F 30% 29.96 in 7.0 mi WNW 12.7 mph 17.3 mph N/A   Clear
9:35 AM 66.2 °F 32.0 °F 28% 29.97 in 7.0 mi NW 16.1 mph - N/A   Clear
9:55 AM 66.2 °F 32.0 °F 28% 29.96 in 8.0 mi NW 17.3 mph 21.9 mph N/A   Clear
10:15 AM 68.0 °F 32.0 °F 26% 29.96 in 7.0 mi NW 15.0 mph 20.7 mph N/A   Clear
10:35 AM 68.0 °F 33.8 °F 28% 29.96 in 7.0 mi NW 20.7 mph 27.6 mph N/A   Clear
10:55 AM 68.0 °F 33.8 °F 28% 29.95 in 7.0 mi NW 20.7 mph 24.2 mph N/A   Clear
11:15 AM 68.0 °F 33.8 °F 28% 29.94 in 7.0 mi WNW 20.7 mph 27.6 mph N/A   Clear
11:35 AM 69.8 °F 33.8 °F 27% 29.94 in 6.0 mi NW 20.7 mph 28.8 mph N/A   Haze
11:55 AM 68.0 °F 33.8 °F 28% 29.94 in 7.0 mi WNW 21.9 mph 29.9 mph N/A   Clear
12:15 PM 68.0 °F 35.6 °F 30% 29.93 in 7.0 mi NW 23.0 mph 29.9 mph N/A   Clear
12:35 PM 69.8 °F 33.8 °F 27% 29.92 in 7.0 mi NW 21.9 mph 32.2 mph N/A   Clear
12:55 PM 69.8 °F 33.8 °F 27% 29.92 in 5.0 mi WNW 23.0 mph 28.8 mph N/A   Haze
1:15 PM 68.0 °F 33.8 °F 28% 29.91 in 5.0 mi NW 23.0 mph 31.1 mph N/A   Haze
1:35 PM 68.0 °F 33.8 °F 28% 29.90 in 7.0 mi NW 21.9 mph 28.8 mph N/A   Clear
1:55 PM 68.0 °F 35.6 °F 30% 29.90 in 5.0 mi WNW 23.0 mph 32.2 mph N/A   Haze
2:15 PM 68.0 °F 33.8 °F 28% 29.90 in 5.0 mi WNW 19.6 mph 29.9 mph N/A   Haze
2:35 PM 68.0 °F 35.6 °F 30% 29.89 in 6.0 mi NW 20.7 mph 28.8 mph N/A   Haze
2:55 PM 68.0 °F 32.0 °F 26% 29.89 in 5.0 mi NW 23.0 mph 31.1 mph N/A   Haze
3:15 PM 68.0 °F 32.0 °F 26% 29.89 in 9.0 mi WNW 18.4 mph 28.8 mph N/A   Clear
3:35 PM 68.0 °F 32.0 °F 26% 29.89 in 7.0 mi NW 18.4 mph 27.6 mph N/A   Clear
3:55 PM 68.0 °F 32.0 °F 26% 29.89 in 9.0 mi NW 19.6 mph 31.1 mph N/A   Clear
4:15 PM 66.2 °F 32.0 °F 28% 29.88 in 9.0 mi NW 23.0 mph 32.2 mph N/A   Clear
4:35 PM 66.2 °F 32.0 °F 28% 29.88 in 8.0 mi NW 23.0 mph 28.8 mph N/A   Clear
4:55 PM 66.2 °F 30.2 °F 26% 29.88 in 10.0 mi NW 19.6 mph 32.2 mph N/A   Clear
5:15 PM 64.4 °F 32.0 °F 30% 29.88 in 10.0 mi NW 19.6 mph 26.5 mph N/A   Clear
5:35 PM 64.4 °F 32.0 °F 30% 29.88 in 8.0 mi NW 20.7 mph 26.5 mph N/A   Clear
5:55 PM 62.6 °F 32.0 °F 32% 29.88 in 8.0 mi WNW 19.6 mph 26.5 mph N/A   Clear
6:15 PM 60.8 °F 32.0 °F 34% 29.89 in 8.0 mi WNW 19.6 mph 24.2 mph N/A   Clear
6:35 PM 59.0 °F 33.8 °F 39% 29.89 in 7.0 mi WNW 16.1 mph 23.0 mph N/A   Clear
6:55 PM 59.0 °F 32.0 °F 36% 29.90 in 9.0 mi WNW 12.7 mph 21.9 mph N/A   Clear
7:15 PM 57.2 °F 32.0 °F 38% 29.90 in 9.0 mi WNW 12.7 mph 20.7 mph N/A   Clear
7:35 PM 57.2 °F 32.0 °F 38% 29.91 in 8.0 mi WNW 13.8 mph 19.6 mph N/A   Clear
7:55 PM 57.2 °F 33.8 °F 41% 29.92 in 8.0 mi WNW 15.0 mph 23.0 mph N/A   Clear
8:15 PM 57.2 °F 35.6 °F 44% 29.92 in 7.0 mi WNW 17.3 mph - N/A   Clear
8:35 PM 55.4 °F 35.6 °F 47% 29.92 in 7.0 mi NW 16.1 mph 20.7 mph N/A   Clear
8:55 PM 55.4 °F 37.4 °F 51% 29.93 in 6.0 mi NW 15.0 mph 21.9 mph N/A   Haze
9:15 PM 55.4 °F 37.4 °F 51% 29.94 in 7.0 mi NW 17.3 mph - N/A   Partly Cloudy
9:35 PM 53.6 °F 37.4 °F 54% 29.94 in 6.0 mi NW 15.0 mph 20.7 mph N/A   Haze
9:55 PM 53.6 °F 37.4 °F 54% 29.95 in 7.0 mi West 10.4 mph - N/A   Clear
10:15 PM 53.6 °F 35.6 °F 51% 29.95 in 7.0 mi West 15.0 mph - N/A   Clear
10:35 PM 53.6 °F 37.4 °F 54% 29.96 in 7.0 mi West 11.5 mph - N/A   Clear
10:55 PM 50.0 °F 35.6 °F 58% 29.97 in 6.0 mi West 15.0 mph - N/A   Haze
11:15 PM 50.0 °F 35.6 °F 58% 29.97 in 6.0 mi West 10.4 mph - N/A   Haze
11:35 PM 50.0 °F 35.6 °F 58% 29.98 in 6.0 mi West 10.4 mph 16.1 mph N/A   Haze
11:55 PM 50.0 °F 35.6 °F 58% 29.98 in 6.0 mi West 10.4 mph - N/A   Haze